Time;durP1;ratioP1;P1;durP2;ratioP2;P2;SDS_P1;SDS_P2;PMS_P1;PMS_P2;Temp;Humidity;BMP_temperature;BMP_pressure;BME280_temperature;BME280_humidity;BME280_pressure;Samples;Min_cycle;Max_cycle;Signal;HPM_P1;HPM_P2
2021/04/16 00:00:50;;;;;;;4.10;1.48;;;;;;;;;;5043756;28;20917;-59
2021/04/16 00:03:16;;;;;;;1.35;0.93;;;;;;;;;;5045280;28;20044;-59
2021/04/16 00:05:42;;;;;;;2.70;1.27;;;;;;;;;;5044269;28;20070;-59
2021/04/16 00:08:21;;;;;;;1.75;0.98;;;;;;;;;;5044205;28;20078;-59
2021/04/16 00:10:49;;;;;;;3.03;1.20;;;;;;;;;;5036136;28;20135;-60
2021/04/16 00:13:15;;;;;;;2.53;0.98;;;;;;;;;;5041220;28;20033;-59
2021/04/16 00:15:42;;;;;;;3.10;1.23;;;;;;;;;;5041978;28;20044;-59
2021/04/16 00:18:15;;;;;;;2.25;1.10;;;;;;;;;;5057477;28;20029;-60
2021/04/16 00:20:43;;;;;;;3.05;1.10;;;;;;;;;;5043483;28;20028;-58
2021/04/16 00:23:11;;;;;;;3.78;1.45;;;;;;;;;;5044073;28;20032;-59
2021/04/16 00:25:37;;;;;;;5.65;1.25;;;;;;;;;;5041259;28;20032;-60
2021/04/16 00:28:03;;;;;;;4.55;1.02;;;;;;;;;;5042067;28;20067;-59
2021/04/16 00:30:34;;;;;;;2.85;1.08;;;;;;;;;;5044007;28;20053;-59
2021/04/16 00:32:59;;;;;;;4.15;1.25;;;;;;;;;;5042822;28;20040;-60
2021/04/16 00:35:24;;;;;;;2.38;1.20;;;;;;;;;;5042797;28;20041;-60
2021/04/16 00:37:50;;;;;;;1.00;0.90;;;;;;;;;;5042972;28;20112;-59
2021/04/16 00:40:18;;;;;;;2.10;1.20;;;;;;;;;;5045490;28;20173;-60
2021/04/16 00:42:51;;;;;;;3.75;1.30;;;;;;;;;;5027570;28;20119;-60
2021/04/16 00:45:21;;;;;;;3.17;1.00;;;;;;;;;;5043646;28;20147;-61
2021/04/16 00:47:48;;;;;;;1.40;0.85;;;;;;;;;;5044786;28;20052;-60
2021/04/16 00:50:20;;;;;;;1.58;0.75;;;;;;;;;;5044008;28;20159;-60
2021/04/16 00:52:45;;;;;;;1.15;0.77;;;;;;;;;;5043470;28;20086;-60
2021/04/16 00:55:11;;;;;;;2.97;1.10;;;;;;;;;;5045462;28;20044;-60
2021/04/16 00:57:36;;;;;;;1.60;1.10;;;;;;;;;;5042436;28;20115;-60
2021/04/16 01:00:06;;;;;;;3.13;1.00;;;;;;;;;;5042329;28;20037;-60
2021/04/16 01:02:31;;;;;;;1.15;0.80;;;;;;;;;;5042733;28;20032;-60
2021/04/16 01:05:02;;;;;;;3.72;1.20;;;;;;;;;;5044299;28;20782;-60
2021/04/16 01:07:28;;;;;;;2.05;1.05;;;;;;;;;;5042951;28;20208;-62
2021/04/16 01:09:54;;;;;;;3.50;0.95;;;;;;;;;;5043601;28;20048;-60
2021/04/16 01:12:19;;;;;;;3.70;0.95;;;;;;;;;;5040376;28;20043;-61
2021/04/16 01:14:51;;;;;;;1.60;1.15;;;;;;;;;;5047837;28;20089;-59
2021/04/16 01:17:17;;;;;;;3.40;1.35;;;;;;;;;;5047301;28;20044;-59
2021/04/16 01:19:42;;;;;;;3.17;1.38;;;;;;;;;;5048231;28;20032;-59
2021/04/16 01:22:11;;;;;;;3.53;1.58;;;;;;;;;;5045639;28;20060;-59
2021/04/16 01:24:37;;;;;;;2.58;1.20;;;;;;;;;;5047181;28;20033;-61
2021/04/16 01:27:12;;;;;;;1.63;1.25;;;;;;;;;;5045946;28;20051;-59
2021/04/16 01:29:41;;;;;;;7.60;1.33;;;;;;;;;;5039999;28;20039;-59
2021/04/16 01:32:13;;;;;;;1.98;1.45;;;;;;;;;;5055758;28;20045;-58
2021/04/16 01:34:41;;;;;;;2.10;1.02;;;;;;;;;;5047909;28;20025;-60
2021/04/16 01:37:11;;;;;;;3.97;0.98;;;;;;;;;;5029681;28;20032;-59
2021/04/16 01:39:36;;;;;;;1.92;1.40;;;;;;;;;;5038930;28;20036;-60
2021/04/16 01:42:05;;;;;;;4.15;1.90;;;;;;;;;;5046441;28;20033;-60
2021/04/16 01:44:32;;;;;;;1.92;1.30;;;;;;;;;;5046229;28;20437;-60
2021/04/16 01:47:01;;;;;;;4.28;1.13;;;;;;;;;;5044665;28;20036;-60
2021/04/16 01:49:31;;;;;;;1.65;0.77;;;;;;;;;;5047626;28;20039;-60
2021/04/16 01:51:59;;;;;;;4.18;1.30;;;;;;;;;;5063751;28;20266;-60
2021/04/16 01:54:33;;;;;;;4.10;1.67;;;;;;;;;;5048434;28;20043;-60
2021/04/16 01:57:12;;;;;;;1.08;0.80;;;;;;;;;;5047263;28;20025;-60
2021/04/16 01:59:38;;;;;;;1.45;1.23;;;;;;;;;;5043649;28;20085;-60
2021/04/16 02:02:05;;;;;;;4.47;1.17;;;;;;;;;;5045326;28;20025;-60
2021/04/16 02:04:31;;;;;;;1.77;1.13;;;;;;;;;;5046164;28;20036;-60
2021/04/16 02:06:56;;;;;;;1.95;1.48;;;;;;;;;;5044228;28;20036;-59
2021/04/16 02:09:25;;;;;;;1.05;0.77;;;;;;;;;;5049216;28;20033;-60
2021/04/16 02:11:54;;;;;;;1.58;1.48;;;;;;;;;;5046501;28;20078;-60
2021/04/16 02:14:21;;;;;;;1.98;1.52;;;;;;;;;;5030295;28;20111;-60
2021/04/16 02:16:48;;;;;;;2.33;1.30;;;;;;;;;;5046688;28;20032;-60
2021/04/16 02:19:25;;;;;;;2.83;1.60;;;;;;;;;;5045656;28;20040;-60
2021/04/16 02:21:53;;;;;;;2.97;1.40;;;;;;;;;;5016904;28;20047;-60
2021/04/16 02:24:19;;;;;;;3.13;1.63;;;;;;;;;;5045385;28;20068;-60
2021/04/16 02:26:47;;;;;;;1.75;1.30;;;;;;;;;;5044924;28;20127;-60
2021/04/16 02:29:16;;;;;;;1.40;1.30;;;;;;;;;;5027409;28;20036;-60
2021/04/16 02:31:44;;;;;;;2.40;1.23;;;;;;;;;;5045823;28;20040;-60
2021/04/16 02:34:18;;;;;;;1.25;0.98;;;;;;;;;;5045890;28;20765;-61
2021/04/16 02:36:46;;;;;;;2.47;1.60;;;;;;;;;;5044694;28;20032;-60
2021/04/16 02:39:14;;;;;;;2.72;1.50;;;;;;;;;;5044631;28;20056;-59
2021/04/16 02:41:42;;;;;;;3.38;1.65;;;;;;;;;;5046573;28;20123;-60
2021/04/16 02:44:13;;;;;;;1.88;1.50;;;;;;;;;;5046517;28;20087;-59
2021/04/16 02:46:41;;;;;;;3.85;1.70;;;;;;;;;;5043304;28;20024;-60
2021/04/16 02:49:09;;;;;;;1.33;1.15;;;;;;;;;;5032626;28;20082;-60
2021/04/16 02:51:37;;;;;;;5.90;2.00;;;;;;;;;;5046446;28;20020;-59
2021/04/16 02:54:02;;;;;;;3.08;1.27;;;;;;;;;;5044340;28;20035;-59
2021/04/16 02:56:33;;;;;;;1.13;0.98;;;;;;;;;;5036375;28;20255;-60
2021/04/16 02:59:02;;;;;;;1.33;1.05;;;;;;;;;;5054744;28;20033;-59
2021/04/16 03:01:29;;;;;;;4.20;1.05;;;;;;;;;;5028843;28;20035;-60
2021/04/16 03:03:57;;;;;;;8.55;1.85;;;;;;;;;;5045569;28;20040;-59
2021/04/16 03:06:27;;;;;;;1.85;1.35;;;;;;;;;;5026610;28;20910;-60
2021/04/16 03:08:53;;;;;;;1.05;1.00;;;;;;;;;;5044841;28;20118;-59
2021/04/16 03:11:22;;;;;;;2.78;1.50;;;;;;;;;;5027886;28;20056;-59
2021/04/16 03:13:53;;;;;;;1.40;1.30;;;;;;;;;;5044537;28;20495;-59
2021/04/16 03:16:19;;;;;;;1.65;1.13;;;;;;;;;;5044878;28;20021;-60
2021/04/16 03:18:45;;;;;;;3.08;1.30;;;;;;;;;;5047149;28;20124;-59
2021/04/16 03:21:10;;;;;;;3.15;1.20;;;;;;;;;;5010052;28;20424;-59
2021/04/16 03:23:38;;;;;;;3.53;1.60;;;;;;;;;;5043257;28;20033;-59
2021/04/16 03:26:03;;;;;;;3.30;1.80;;;;;;;;;;5044857;28;20046;-61
2021/04/16 03:28:30;;;;;;;3.55;1.17;;;;;;;;;;5041540;28;20063;-60
2021/04/16 03:30:58;;;;;;;7.40;1.80;;;;;;;;;;5043295;28;20016;-60
2021/04/16 03:33:23;;;;;;;1.30;1.17;;;;;;;;;;5042504;28;20032;-60
2021/04/16 03:35:54;;;;;;;2.25;1.70;;;;;;;;;;5011824;28;20041;-60
2021/04/16 03:38:20;;;;;;;1.65;1.13;;;;;;;;;;5042004;28;20024;-60
2021/04/16 03:40:47;;;;;;;3.20;1.70;;;;;;;;;;5042341;28;20118;-60
2021/04/16 03:43:12;;;;;;;6.30;1.48;;;;;;;;;;5041741;28;20035;-60
2021/04/16 03:45:42;;;;;;;1.80;1.20;;;;;;;;;;5027465;28;20044;-60
2021/04/16 03:48:11;;;;;;;2.47;1.60;;;;;;;;;;5043866;28;20040;-60
2021/04/16 03:50:39;;;;;;;2.00;1.13;;;;;;;;;;5043333;28;20715;-60
2021/04/16 03:53:08;;;;;;;1.75;1.27;;;;;;;;;;5041635;28;20056;-60
2021/04/16 03:55:36;;;;;;;1.65;1.27;;;;;;;;;;5029065;28;20021;-59
2021/04/16 03:58:02;;;;;;;2.17;1.08;;;;;;;;;;5041915;28;20037;-59
2021/04/16 04:00:30;;;;;;;3.05;1.20;;;;;;;;;;5046209;28;20032;-59
2021/04/16 04:02:59;;;;;;;6.43;1.40;;;;;;;;;;5044740;28;20036;-60
2021/04/16 04:05:27;;;;;;;1.52;1.42;;;;;;;;;;5043223;28;20092;-60
2021/04/16 04:07:55;;;;;;;1.80;1.52;;;;;;;;;;5031189;28;20232;-60
2021/04/16 04:10:22;;;;;;;3.40;1.10;;;;;;;;;;5040750;28;20609;-60
2021/04/16 04:12:48;;;;;;;2.10;1.30;;;;;;;;;;5034916;28;20451;-60
2021/04/16 04:15:14;;;;;;;1.92;1.20;;;;;;;;;;5045423;28;20033;-60
2021/04/16 04:17:42;;;;;;;5.30;1.42;;;;;;;;;;5041522;28;20134;-61
2021/04/16 04:20:10;;;;;;;3.20;1.20;;;;;;;;;;5047180;28;20077;-61
2021/04/16 04:22:36;;;;;;;1.60;1.42;;;;;;;;;;5043390;28;20128;-60
2021/04/16 04:25:04;;;;;;;2.50;1.33;;;;;;;;;;5045898;28;20024;-60
2021/04/16 04:27:35;;;;;;;1.98;1.27;;;;;;;;;;5045415;28;20040;-60
2021/04/16 04:30:00;;;;;;;1.58;1.23;;;;;;;;;;5029748;28;20071;-61
2021/04/16 04:32:28;;;;;;;4.97;2.03;;;;;;;;;;5041958;28;20473;-61
2021/04/16 04:34:56;;;;;;;1.63;1.30;;;;;;;;;;5044034;28;20899;-60
2021/04/16 04:37:24;;;;;;;4.00;1.80;;;;;;;;;;5041988;28;20041;-61
2021/04/16 04:39:49;;;;;;;2.45;1.63;;;;;;;;;;5029429;28;20045;-60
2021/04/16 04:42:15;;;;;;;4.00;1.77;;;;;;;;;;5039806;28;20480;-61
2021/04/16 04:44:45;;;;;;;4.88;1.30;;;;;;;;;;5053760;28;20472;-61
2021/04/16 04:47:11;;;;;;;4.75;2.33;;;;;;;;;;5042591;28;20032;-62
2021/04/16 04:49:37;;;;;;;4.85;1.85;;;;;;;;;;5046850;28;20027;-61
2021/04/16 04:52:08;;;;;;;5.05;1.70;;;;;;;;;;5047647;28;20020;-60
2021/04/16 04:54:35;;;;;;;6.95;1.67;;;;;;;;;;5046664;28;20032;-61
2021/04/16 04:57:03;;;;;;;3.90;1.55;;;;;;;;;;5046703;28;20036;-61
2021/04/16 04:59:29;;;;;;;7.18;2.10;;;;;;;;;;5050048;28;20047;-62
2021/04/16 05:01:57;;;;;;;1.70;1.55;;;;;;;;;;5032150;28;20044;-61
2021/04/16 05:04:25;;;;;;;3.80;1.65;;;;;;;;;;5046646;28;20460;-62
2021/04/16 05:06:53;;;;;;;4.25;1.60;;;;;;;;;;5045973;28;20063;-61
2021/04/16 05:09:25;;;;;;;1.50;1.40;;;;;;;;;;5045844;28;20119;-61
2021/04/16 05:11:51;;;;;;;2.42;1.40;;;;;;;;;;5045096;28;20040;-62
2021/04/16 05:14:17;;;;;;;4.05;1.30;;;;;;;;;;5044639;28;20051;-63
2021/04/16 05:16:42;;;;;;;5.00;1.45;;;;;;;;;;5047504;28;20115;-62
2021/04/16 05:19:08;;;;;;;4.97;1.85;;;;;;;;;;5029356;28;20701;-61
2021/04/16 05:21:36;;;;;;;8.05;1.73;;;;;;;;;;5046493;28;20055;-62
2021/04/16 05:24:05;;;;;;;6.57;1.98;;;;;;;;;;5049273;28;20079;-61
2021/04/16 05:26:33;;;;;;;4.82;1.70;;;;;;;;;;5047199;28;20073;-61
2021/04/16 05:28:59;;;;;;;6.68;1.73;;;;;;;;;;5046211;28;20033;-61
2021/04/16 05:31:27;;;;;;;3.25;1.42;;;;;;;;;;5047501;28;20062;-61
2021/04/16 05:33:58;;;;;;;5.20;1.23;;;;;;;;;;5045264;28;20032;-59
2021/04/16 05:36:25;;;;;;;5.95;2.03;;;;;;;;;;5045257;28;21569;-60
2021/04/16 05:38:53;;;;;;;2.30;1.70;;;;;;;;;;5046500;28;20039;-61
2021/04/16 05:41:19;;;;;;;4.32;1.58;;;;;;;;;;5043082;28;20581;-61
2021/04/16 05:43:44;;;;;;;4.63;1.67;;;;;;;;;;5044410;28;20529;-61
2021/04/16 05:46:12;;;;;;;7.13;1.60;;;;;;;;;;5043649;28;20033;-60
2021/04/16 05:48:40;;;;;;;8.00;1.85;;;;;;;;;;5043871;28;20032;-61
2021/04/16 05:51:09;;;;;;;2.00;1.20;;;;;;;;;;5044820;28;20036;-60
2021/04/16 05:53:35;;;;;;;2.47;1.50;;;;;;;;;;5046047;28;20032;-60
2021/04/16 05:56:00;;;;;;;3.00;1.42;;;;;;;;;;5047931;28;20564;-60
2021/04/16 05:58:29;;;;;;;2.10;1.25;;;;;;;;;;5046629;28;22008;-60
2021/04/16 06:00:59;;;;;;;3.05;1.15;;;;;;;;;;5032530;28;20036;-61
2021/04/16 06:03:24;;;;;;;9.35;1.58;;;;;;;;;;5031435;28;20033;-61
2021/04/16 06:05:50;;;;;;;4.97;1.27;;;;;;;;;;5047696;28;20040;-60
2021/04/16 06:08:21;;;;;;;3.08;1.20;;;;;;;;;;5044651;28;20028;-60
2021/04/16 06:10:49;;;;;;;3.30;1.33;;;;;;;;;;5016710;28;20041;-61
2021/04/16 06:13:14;;;;;;;2.97;1.38;;;;;;;;;;5055963;28;20476;-60
2021/04/16 06:15:40;;;;;;;2.78;1.05;;;;;;;;;;5046962;28;20028;-61
2021/04/16 06:18:05;;;;;;;7.13;1.38;;;;;;;;;;5045893;28;20032;-61
2021/04/16 06:20:34;;;;;;;4.18;1.27;;;;;;;;;;5045001;28;20039;-59
2021/04/16 06:23:02;;;;;;;3.40;1.45;;;;;;;;;;5043437;28;20248;-59
2021/04/16 06:25:32;;;;;;;6.30;1.30;;;;;;;;;;5039767;28;20028;-59
2021/04/16 06:28:01;;;;;;;3.55;1.13;;;;;;;;;;5043597;28;20056;-60
2021/04/16 06:30:27;;;;;;;8.73;1.60;;;;;;;;;;5046852;28;20427;-59
2021/04/16 06:33:02;;;;;;;7.35;1.38;;;;;;;;;;5046841;28;20120;-60
2021/04/16 06:35:27;;;;;;;5.05;1.15;;;;;;;;;;5053224;28;20032;-60
2021/04/16 06:37:53;;;;;;;5.63;1.58;;;;;;;;;;5047351;28;20571;-60
2021/04/16 06:40:19;;;;;;;1.70;1.00;;;;;;;;;;5043797;28;20145;-60
2021/04/16 06:42:52;;;;;;;4.53;1.60;;;;;;;;;;5027845;28;20122;-60
2021/04/16 06:45:23;;;;;;;2.42;1.08;;;;;;;;;;5047816;28;20033;-59
2021/04/16 06:47:57;;;;;;;8.57;1.80;;;;;;;;;;5042422;28;20051;-60
2021/04/16 06:50:25;;;;;;;4.20;1.00;;;;;;;;;;5045130;28;20291;-59
2021/04/16 06:53:06;;;;;;;7.25;1.33;;;;;;;;;;5027391;28;20055;-60
2021/04/16 06:55:33;;;;;;;4.85;1.30;;;;;;;;;;5045761;28;20031;-59
2021/04/16 06:58:06;;;;;;;5.78;1.27;;;;;;;;;;5043856;28;20048;-60
2021/04/16 07:00:45;;;;;;;3.42;1.50;;;;;;;;;;5044643;28;20024;-60
2021/04/16 07:03:10;;;;;;;6.57;1.30;;;;;;;;;;5041282;28;20033;-62
2021/04/16 07:05:51;;;;;;;6.55;1.48;;;;;;;;;;5046443;28;20036;-61
2021/04/16 07:08:30;;;;;;;3.30;1.10;;;;;;;;;;5042942;28;20047;-61
2021/04/16 07:10:58;;;;;;;4.80;1.70;;;;;;;;;;5048952;28;20055;-60
2021/04/16 07:13:35;;;;;;;9.50;2.38;;;;;;;;;;5043242;28;20039;-59
2021/04/16 07:16:01;;;;;;;3.55;1.30;;;;;;;;;;5017996;28;20776;-60
2021/04/16 07:18:32;;;;;;;7.47;1.45;;;;;;;;;;5025820;28;20059;-61
2021/04/16 07:20:58;;;;;;;6.20;1.25;;;;;;;;;;5044595;28;20082;-60
2021/04/16 07:23:28;;;;;;;2.45;1.00;;;;;;;;;;5041987;28;20873;-61
2021/04/16 07:25:53;;;;;;;4.03;1.42;;;;;;;;;;5028710;28;20025;-60
2021/04/16 07:28:40;;;;;;;2.92;1.10;;;;;;;;;;5042386;28;20050;-61
2021/04/16 07:31:26;;;;;;;3.83;0.93;;;;;;;;;;5036696;28;20054;-62
2021/04/16 07:33:53;;;;;;;3.38;0.90;;;;;;;;;;5036164;28;22153;-62
2021/04/16 07:36:24;;;;;;;3.95;1.10;;;;;;;;;;5041671;28;20159;-62
2021/04/16 07:38:57;;;;;;;2.60;0.85;;;;;;;;;;5044295;28;20025;-62
2021/04/16 07:41:26;;;;;;;5.57;0.82;;;;;;;;;;5044803;28;20060;-61
2021/04/16 07:43:53;;;;;;;4.40;0.82;;;;;;;;;;5044614;28;20029;-62
2021/04/16 07:46:24;;;;;;;1.13;0.82;;;;;;;;;;5044235;28;20040;-61
2021/04/16 07:48:52;;;;;;;5.03;0.85;;;;;;;;;;5043571;28;20128;-61
2021/04/16 07:51:28;;;;;;;4.53;0.82;;;;;;;;;;5044770;28;20040;-62
2021/04/16 07:54:10;;;;;;;0.93;0.93;;;;;;;;;;5042335;28;20029;-62
2021/04/16 07:56:35;;;;;;;2.28;0.95;;;;;;;;;;5043786;28;20048;-62
2021/04/16 07:59:04;;;;;;;2.70;0.70;;;;;;;;;;5046896;28;20059;-61
2021/04/16 08:01:32;;;;;;;4.95;0.90;;;;;;;;;;5044518;28;20020;-62
2021/04/16 08:03:59;;;;;;;1.58;0.70;;;;;;;;;;5046481;28;20044;-61
2021/04/16 08:06:28;;;;;;;1.55;0.70;;;;;;;;;;5041658;28;20070;-61
2021/04/16 08:08:54;;;;;;;1.75;0.57;;;;;;;;;;5044146;28;20085;-61
2021/04/16 08:11:24;;;;;;;2.67;1.23;;;;;;;;;;5036978;28;20049;-61
2021/04/16 08:13:50;;;;;;;2.47;0.57;;;;;;;;;;5042475;28;20039;-61
2021/04/16 08:16:25;;;;;;;1.50;0.80;;;;;;;;;;5045941;28;20104;-61
2021/04/16 08:18:56;;;;;;;2.25;0.70;;;;;;;;;;5043240;28;20040;-61
2021/04/16 08:21:22;;;;;;;1.80;0.70;;;;;;;;;;5030714;28;20578;-61
2021/04/16 08:24:09;;;;;;;1.02;0.60;;;;;;;;;;5048401;28;20099;-61
2021/04/16 08:26:39;;;;;;;2.00;0.53;;;;;;;;;;5032849;28;20039;-60
2021/04/16 08:29:14;;;;;;;2.05;0.68;;;;;;;;;;5050001;28;22437;-60
2021/04/16 08:31:47;;;;;;;3.03;0.60;;;;;;;;;;5049519;28;20039;-58
2021/04/16 08:34:19;;;;;;;4.80;0.70;;;;;;;;;;5049845;28;20468;-61
2021/04/16 08:36:47;;;;;;;1.70;0.80;;;;;;;;;;5046057;28;20032;-60
2021/04/16 08:39:16;;;;;;;0.50;0.40;;;;;;;;;;5043436;28;20031;-60
2021/04/16 08:41:46;;;;;;;2.80;0.40;;;;;;;;;;5051508;28;20032;-60
2021/04/16 08:44:15;;;;;;;2.67;0.30;;;;;;;;;;5050547;28;20123;-59
2021/04/16 08:46:49;;;;;;;1.17;0.60;;;;;;;;;;5051215;28;20354;-60
2021/04/16 08:49:18;;;;;;;0.90;0.50;;;;;;;;;;5051403;28;20032;-61
2021/04/16 08:51:45;;;;;;;1.13;0.50;;;;;;;;;;5050103;28;20483;-59
2021/04/16 08:54:16;;;;;;;1.85;0.43;;;;;;;;;;5049231;28;20033;-60
2021/04/16 08:57:00;;;;;;;3.70;0.40;;;;;;;;;;5047709;28;22062;-60
2021/04/16 08:59:32;;;;;;;1.15;0.52;;;;;;;;;;5049214;28;20056;-60
2021/04/16 09:02:04;;;;;;;1.35;0.60;;;;;;;;;;5049758;28;20800;-60
2021/04/16 09:04:30;;;;;;;2.38;0.55;;;;;;;;;;5049147;28;20036;-60
2021/04/16 09:07:00;;;;;;;3.80;0.50;;;;;;;;;;5049589;28;20114;-60
2021/04/16 09:09:41;;;;;;;1.30;0.45;;;;;;;;;;5050820;28;20396;-60
2021/04/16 09:12:07;;;;;;;0.90;0.70;;;;;;;;;;5050538;28;20520;-60
2021/04/16 09:14:33;;;;;;;0.95;0.60;;;;;;;;;;5049324;28;21935;-60
2021/04/16 09:17:02;;;;;;;2.30;0.88;;;;;;;;;;5049100;28;20052;-60
2021/04/16 09:19:28;;;;;;;4.78;0.60;;;;;;;;;;5050533;28;20124;-60
2021/04/16 09:22:11;;;;;;;3.97;0.70;;;;;;;;;;5050342;28;21034;-60
2021/04/16 09:24:46;;;;;;;1.98;0.68;;;;;;;;;;5049028;28;20041;-60
2021/04/16 09:27:35;;;;;;;1.23;0.65;;;;;;;;;;5048754;28;20029;-60
2021/04/16 09:30:07;;;;;;;4.10;0.70;;;;;;;;;;5033587;28;20040;-59
2021/04/16 09:32:33;;;;;;;3.20;1.00;;;;;;;;;;5048308;28;20062;-59
2021/04/16 09:34:59;;;;;;;0.73;0.70;;;;;;;;;;5047898;28;22052;-59
2021/04/16 09:37:33;;;;;;;10.25;1.02;;;;;;;;;;5043051;28;21920;-60
2021/04/16 09:39:58;;;;;;;3.15;0.70;;;;;;;;;;5048525;28;20056;-59
2021/04/16 09:42:29;;;;;;;1.00;0.90;;;;;;;;;;5047265;28;20112;-59
2021/04/16 09:44:56;;;;;;;3.35;0.98;;;;;;;;;;5045012;28;20040;-61
2021/04/16 09:47:45;;;;;;;2.45;0.70;;;;;;;;;;5045938;28;20065;-60
2021/04/16 09:50:43;;;;;;;2.67;0.90;;;;;;;;;;5049878;28;20085;-60
2021/04/16 09:53:36;;;;;;;3.40;0.95;;;;;;;;;;5024934;28;20049;-60
2021/04/16 09:56:08;;;;;;;3.65;1.00;;;;;;;;;;5045964;28;20099;-60
2021/04/16 09:58:53;;;;;;;4.13;1.15;;;;;;;;;;5045013;28;20037;-59
2021/04/16 10:01:20;;;;;;;5.57;0.95;;;;;;;;;;5044140;28;20638;-59
2021/04/16 10:03:48;;;;;;;4.60;1.05;;;;;;;;;;5043545;28;20090;-59
2021/04/16 10:06:16;;;;;;;1.95;1.27;;;;;;;;;;5046389;28;21083;-60
2021/04/16 10:08:44;;;;;;;7.18;1.13;;;;;;;;;;5045823;28;20032;-60
2021/04/16 10:11:10;;;;;;;2.85;0.90;;;;;;;;;;5043802;28;20075;-59
2021/04/16 10:13:40;;;;;;;2.05;1.20;;;;;;;;;;5046048;28;22997;-59
2021/04/16 10:16:22;;;;;;;1.70;0.95;;;;;;;;;;5045327;28;20118;-59
2021/04/16 10:18:50;;;;;;;3.45;1.17;;;;;;;;;;5045913;28;20032;-59
2021/04/16 10:21:16;;;;;;;1.38;0.85;;;;;;;;;;5046312;28;20047;-59
2021/04/16 10:23:44;;;;;;;1.15;0.88;;;;;;;;;;5045377;28;20036;-60
2021/04/16 11:16:52;;;;;;;2.45;1.02;;;;;;;;;;5045805;28;20080;-60
2021/04/16 12:40:03;;;;;;;2.92;1.35;;;;;;;;;;4993462;28;20052;-60
2021/04/16 12:42:28;;;;;;;4.07;1.45;;;;;;;;;;4983032;28;20405;-60
2021/04/16 12:44:54;;;;;;;5.68;2.00;;;;;;;;;;4995813;28;20037;-60
2021/04/16 12:47:28;;;;;;;2.58;1.55;;;;;;;;;;4997191;28;20468;-60
2021/04/16 12:49:56;;;;;;;4.18;1.73;;;;;;;;;;4999180;28;20390;-60
2021/04/16 12:52:27;;;;;;;5.55;1.48;;;;;;;;;;4996803;28;20021;-60
2021/04/16 12:54:53;;;;;;;6.85;1.88;;;;;;;;;;5002069;28;20026;-59
2021/04/16 12:57:20;;;;;;;6.80;1.70;;;;;;;;;;4999871;28;20339;-60
2021/04/16 12:59:46;;;;;;;4.47;1.88;;;;;;;;;;4997531;28;20029;-59
2021/04/16 13:02:25;;;;;;;3.97;1.55;;;;;;;;;;4992021;28;20108;-60
2021/04/16 13:05:02;;;;;;;1.65;1.20;;;;;;;;;;4995814;28;20041;-61
2021/04/16 13:07:28;;;;;;;1.73;1.35;;;;;;;;;;4972199;28;20033;-60
2021/04/16 13:09:54;;;;;;;5.57;1.65;;;;;;;;;;4997273;28;20069;-60
2021/04/16 13:12:20;;;;;;;4.15;1.42;;;;;;;;;;5040859;28;22071;-61
2021/04/16 13:14:48;;;;;;;4.78;1.60;;;;;;;;;;5043138;28;20032;-60
2021/04/16 13:17:21;;;;;;;3.78;1.90;;;;;;;;;;5041145;28;20040;-62
2021/04/16 13:19:47;;;;;;;9.65;1.80;;;;;;;;;;5046411;28;21167;-60
2021/04/16 13:22:18;;;;;;;7.65;1.90;;;;;;;;;;5045642;28;20064;-60
2021/04/16 13:24:45;;;;;;;6.38;1.77;;;;;;;;;;5046044;28;20036;-61
2021/04/16 13:27:12;;;;;;;4.45;1.77;;;;;;;;;;5031002;28;20063;-61
2021/04/16 13:29:38;;;;;;;4.88;1.65;;;;;;;;;;5047670;28;20024;-61
2021/04/16 13:32:09;;;;;;;3.35;1.38;;;;;;;;;;5047793;28;20025;-61
2021/04/16 13:34:36;;;;;;;6.63;1.50;;;;;;;;;;5045003;28;20029;-61
2021/04/16 13:37:03;;;;;;;2.97;1.17;;;;;;;;;;5047206;28;20040;-61
2021/04/16 13:39:28;;;;;;;1.92;1.00;;;;;;;;;;5048305;28;20059;-62
2021/04/16 13:41:58;;;;;;;3.10;1.25;;;;;;;;;;5044279;28;20109;-67
2021/04/16 13:44:24;;;;;;;2.88;0.98;;;;;;;;;;5047619;28;20823;-62
2021/04/16 13:46:51;;;;;;;4.50;1.00;;;;;;;;;;5045842;28;20035;-62
2021/04/16 13:49:20;;;;;;;2.17;1.40;;;;;;;;;;5030693;28;20084;-61
2021/04/16 13:51:48;;;;;;;6.18;1.27;;;;;;;;;;5038553;28;20492;-62
2021/04/16 13:54:14;;;;;;;3.17;1.25;;;;;;;;;;5046154;28;20025;-62
2021/04/16 13:56:48;;;;;;;4.63;0.85;;;;;;;;;;5037956;28;22143;-62
2021/04/16 13:59:14;;;;;;;5.78;0.77;;;;;;;;;;5044058;28;20025;-62
2021/04/16 14:01:41;;;;;;;2.55;1.00;;;;;;;;;;5046801;28;20043;-62
2021/04/16 14:04:08;;;;;;;1.23;1.00;;;;;;;;;;5046126;28;20115;-62
2021/04/16 14:06:35;;;;;;;2.42;0.88;;;;;;;;;;5045608;28;20126;-63
2021/04/16 14:09:23;;;;;;;1.45;0.80;;;;;;;;;;5029059;28;20032;-63
2021/04/16 14:11:49;;;;;;;2.50;0.60;;;;;;;;;;5043341;28;20052;-62
2021/04/16 14:14:25;;;;;;;1.88;0.90;;;;;;;;;;5045999;28;20039;-61
2021/04/16 14:16:55;;;;;;;1.52;0.47;;;;;;;;;;5044474;28;20025;-62
2021/04/16 14:19:25;;;;;;;3.13;0.95;;;;;;;;;;5029208;28;20186;-63
2021/04/16 14:21:54;;;;;;;3.65;0.70;;;;;;;;;;5042068;28;20129;-61
2021/04/16 14:24:22;;;;;;;0.90;0.60;;;;;;;;;;5040503;28;20037;-62
2021/04/16 14:26:51;;;;;;;1.13;0.75;;;;;;;;;;5046634;28;20480;-61
2021/04/16 14:29:20;;;;;;;5.65;0.60;;;;;;;;;;5045844;28;20049;-62
2021/04/16 14:31:50;;;;;;;2.75;0.38;;;;;;;;;;5043179;28;20036;-61
2021/04/16 14:34:20;;;;;;;1.98;0.77;;;;;;;;;;5032021;28;20196;-62
2021/04/16 14:36:47;;;;;;;1.45;0.40;;;;;;;;;;5045825;28;20057;-63
2021/04/16 14:39:19;;;;;;;6.07;0.60;;;;;;;;;;5043046;28;20041;-61
2021/04/16 14:41:47;;;;;;;2.15;0.90;;;;;;;;;;5027900;28;20039;-62
2021/04/16 14:44:14;;;;;;;1.88;1.00;;;;;;;;;;5042065;28;20074;-64
2021/04/16 14:46:49;;;;;;;3.83;0.80;;;;;;;;;;5045558;28;20033;-61
2021/04/16 14:49:19;;;;;;;1.75;0.90;;;;;;;;;;5043240;28;20116;-59
2021/04/16 14:51:45;;;;;;;2.03;0.90;;;;;;;;;;5045111;28;20032;-61
2021/04/16 14:54:20;;;;;;;3.58;1.08;;;;;;;;;;5045865;28;20472;-63
2021/04/16 14:56:46;;;;;;;3.03;0.90;;;;;;;;;;5041983;28;20066;-61
2021/04/16 14:59:32;;;;;;;3.85;0.90;;;;;;;;;;5031380;28;20125;-61
2021/04/16 15:01:59;;;;;;;1.30;0.70;;;;;;;;;;5027451;28;21544;-62
2021/04/16 15:04:27;;;;;;;1.45;0.82;;;;;;;;;;5041905;28;20123;-61
2021/04/16 15:06:55;;;;;;;1.23;0.80;;;;;;;;;;5042223;28;20056;-61
2021/04/16 15:09:22;;;;;;;2.65;0.80;;;;;;;;;;5044404;28;20035;-61
2021/04/16 15:11:52;;;;;;;0.82;0.63;;;;;;;;;;5041346;28;20048;-61
2021/04/16 15:14:25;;;;;;;1.48;0.82;;;;;;;;;;5043749;28;20027;-60
2021/04/16 15:16:51;;;;;;;2.90;1.08;;;;;;;;;;5036915;28;20036;-61
2021/04/16 15:19:27;;;;;;;3.15;0.95;;;;;;;;;;5045628;28;20042;-61
2021/04/16 15:21:54;;;;;;;1.35;0.90;;;;;;;;;;5042356;28;20064;-61
2021/04/16 15:24:26;;;;;;;4.05;1.20;;;;;;;;;;5041928;28;20105;-62
2021/04/16 15:26:54;;;;;;;5.70;1.23;;;;;;;;;;5044545;28;20112;-60
2021/04/16 15:29:29;;;;;;;4.45;1.15;;;;;;;;;;5043145;28;20139;-62
2021/04/16 15:31:54;;;;;;;4.15;1.50;;;;;;;;;;5045247;28;20754;-61
2021/04/16 15:48:12;;;;;;;3.92;2.13;;;;;;;;;;5043401;28;22053;-60
2021/04/16 15:50:45;;;;;;;9.00;2.38;;;;;;;;;;5042993;28;20074;-61
2021/04/16 15:53:11;;;;;;;4.90;1.80;;;;;;;;;;5042690;28;20025;-60
2021/04/16 15:55:42;;;;;;;4.85;2.13;;;;;;;;;;5043732;28;20020;-61
2021/04/16 15:58:10;;;;;;;4.68;2.33;;;;;;;;;;5041722;28;20636;-59
2021/04/16 16:00:42;;;;;;;5.70;2.65;;;;;;;;;;5039718;28;20040;-59
2021/04/16 16:03:14;;;;;;;5.50;2.50;;;;;;;;;;5039335;28;20032;-60
2021/04/16 16:05:45;;;;;;;7.85;3.67;;;;;;;;;;5044016;28;20024;-60
2021/04/16 16:08:21;;;;;;;8.52;2.30;;;;;;;;;;5043729;28;20143;-60
2021/04/16 16:10:52;;;;;;;5.55;2.25;;;;;;;;;;5042276;28;20726;-60
2021/04/16 16:13:24;;;;;;;7.70;2.97;;;;;;;;;;5033322;28;20078;-60
2021/04/16 16:15:54;;;;;;;6.80;3.17;;;;;;;;;;5043393;28;20119;-61
2021/04/16 16:18:22;;;;;;;4.82;2.92;;;;;;;;;;5041267;28;20091;-61
2021/04/16 16:20:50;;;;;;;6.38;2.90;;;;;;;;;;5044302;28;20029;-60
2021/04/16 16:23:20;;;;;;;4.18;2.58;;;;;;;;;;5043761;28;20065;-61
2021/04/16 16:25:49;;;;;;;7.03;2.85;;;;;;;;;;5046789;28;20062;-61
2021/04/16 16:28:24;;;;;;;4.50;2.50;;;;;;;;;;5043498;28;20029;-60
2021/04/16 16:30:53;;;;;;;9.55;3.17;;;;;;;;;;5041378;28;20093;-59
2021/04/16 16:33:19;;;;;;;5.75;3.80;;;;;;;;;;5045611;28;20058;-60
2021/04/16 16:35:48;;;;;;;5.18;2.13;;;;;;;;;;5045058;28;20492;-61
2021/04/16 16:38:14;;;;;;;5.63;4.05;;;;;;;;;;5042150;28;20035;-62
2021/04/16 16:40:41;;;;;;;7.93;2.67;;;;;;;;;;5043711;28;20167;-60
2021/04/16 16:43:26;;;;;;;4.57;2.45;;;;;;;;;;5024061;28;20485;-61
2021/04/16 16:45:54;;;;;;;3.72;2.63;;;;;;;;;;5039268;28;20052;-60
2021/04/16 16:48:19;;;;;;;4.30;2.42;;;;;;;;;;5044800;28;20033;-60
2021/04/16 16:50:46;;;;;;;6.60;2.97;;;;;;;;;;5047504;28;20025;-61
2021/04/16 16:53:15;;;;;;;4.72;2.33;;;;;;;;;;5047686;28;20116;-61
2021/04/16 16:55:46;;;;;;;4.40;2.85;;;;;;;;;;5044764;28;20155;-62
2021/04/16 16:58:19;;;;;;;5.85;2.80;;;;;;;;;;5047090;28;20072;-61
2021/04/16 17:00:50;;;;;;;4.13;2.70;;;;;;;;;;5044984;28;20032;-60
2021/04/16 17:03:16;;;;;;;2.97;2.40;;;;;;;;;;5045232;28;20363;-61
2021/04/16 17:05:44;;;;;;;5.05;2.35;;;;;;;;;;5046596;28;20043;-61
2021/04/16 17:08:12;;;;;;;5.30;2.33;;;;;;;;;;5042868;28;20040;-61
2021/04/16 17:10:39;;;;;;;3.22;2.17;;;;;;;;;;5045215;28;20387;-61
2021/04/16 17:13:05;;;;;;;7.45;2.80;;;;;;;;;;5044736;28;20044;-60
2021/04/16 17:15:37;;;;;;;5.88;2.72;;;;;;;;;;5028813;28;20137;-62
2021/04/16 17:18:02;;;;;;;5.90;2.58;;;;;;;;;;5047635;28;20041;-62
2021/04/16 17:20:28;;;;;;;5.35;2.92;;;;;;;;;;5037921;28;20045;-62